ADDS METAR Data INFO
IDs: Format: Raw Decoded Include TAF

Data at: 2257 UTC 22 Jun 2018

KHSV 222253Z 25007KT 10SM TS SCT042CB BKN049 BKN100 28/22 A2975 RMK AO2 LTG DSNT NE AND SW AND W RAB38E47 TSB47 SLP066 FRQ LTGICCG W-NE TS W-NE MOV E CB DSNT W-NE P0000 T02780222
KHSV 222227Z 22013KT 10SM VCTS SCT039CB BKN046 BKN250 28/23 A2975 RMK AO2 LTG DSNT W AND NW PRESFR FRQ LTGICCG VC NW TS VC NW MOV E CB DSNT W AND NW T02780228
KHSV 222153Z 23012KT 10SM FEW042 SCT050 BKN250 28/22 A2977 RMK AO2 LTG DSNT NE SLP073 CB DSNT NE T02830222
KHSV 222053Z 22012G22KT 10SM SCT038 SCT070 BKN250 29/22 A2978 RMK AO2 SLP074 T02890217 58008
KHSV 221953Z 22016KT 10SM FEW035 SCT045 SCT250 28/23 A2979 RMK AO2 PK WND 23034/1903 LTG DSNT N AND NE SLP079 CB DSNT N AND NE T02830228
KHSV 221853Z 23021G30KT 10SM SCT032 BKN041TCU BKN250 29/23 A2981 RMK AO2 PK WND 22030/1850 LTG DSNT N SLP086 CB DSNT NW-N TCU VC SE AND S T02940228
KHSV 221753Z 22017G23KT 10SM SCT028 SCT100 BKN250 29/23 A2980 RMK AO2 LTG DSNT NW-NE SLP083 CB DSNT NE RAB21E32 TSB19E35 P0000 60000 T02890233 10294 20206 58012
KHSV 221737Z COR 21016G21KT 10SM SCT030 SCT110 BKN250 29/23 A2981 RMK AO2 LTG DSNT N AND NW RAB21E32 TSB19E35 CB DSNT N-NE P0000 T02940233
KHSV 221722Z 22018G23KT 10SM -TSRA BKN032CB BKN100 BKN250 28/22 A2982 RMK AO2 LTG DSNT N AND NW RAB21 TSB19 OCNL LTGICCG VC NW-N TS VC NW-N MOV NE P0000 T02830222
KHSV 221653Z 23012KT 10SM SCT037 SCT100 BKN250 29/22 A2983 RMK AO2 SLP094 CB DSNT W-NW T02890217
KHSV 221553Z 23010KT 10SM FEW020 SCT120 28/22 A2983 RMK AO2 SLP094 T02830217
KHSV 221453Z 21006KT 10SM FEW015 26/22 A2983 RMK AO2 SLP095 T02560222 58004
KHSV 221444Z 20006KT 10SM SCT013 26/22 A2983 RMK AO2 T02560222
KHSV 221353Z 19007KT 10SM BKN010 23/22 A2984 RMK AO2 SLP099 T02330217
KHSV 221253Z 20003KT 10SM OVC006 21/21 A2985 RMK AO2 SLP101 T02110206
KHSV 221201Z 22006KT 10SM OVC007 21/20 A2985 RMK AO2 T02110200
KHSV 221153Z 21005KT 10SM OVC008 21/20 A2985 RMK AO2 SLP100 60010 70070 T02060200 10211 20200 51007
KHSV 221053Z 18004KT 10SM BKN009 BKN110 20/19 A2985 RMK AO2 SLP099 T02000194
KHSV 221049Z 17004KT 10SM BKN009 BKN110 20/19 A2984 RMK AO2
KHSV 220953Z AUTO 18005KT 10SM FEW011 20/19 A2983 RMK AO2 SLP092 T02000194
KHSV 220853Z AUTO 26003KT 10SM CLR 21/20 A2981 RMK AO2 SLP086 60010 T02060200 56008
KHSV 220753Z AUTO 21006KT 10SM CLR 20/19 A2981 RMK AO2 RAE35 SLP088 P0001 T02000194
KHSV 220653Z AUTO 22004KT 10SM -RA FEW043 BKN090 BKN110 21/20 A2983 RMK AO2 SLP094 P0009 T02060200
KHSV 220553Z AUTO 20005KT 10SM -RA FEW110 21/21 A2983 RMK AO2 LTG DSNT SW SLP095 P0003 60025 T02110206 10283 20206 403000206 58002
KHSV 220453Z 19010KT 10SM RA OVC110 21/21 A2984 RMK AO2 SLP099 P0003 T02110206
KHSV 220353Z 23012KT 10SM -RA FEW040 SCT090 OVC120 22/21 A2984 RMK AO2 LTG DSNT ALQDS TSE47 SLP098 CB DSNT NE AND SE AND SW P0017 T02170211
KHSV 220313Z 23013KT 6SM -TSRA BR FEW019 BKN038CB OVC055 23/22 A2985 RMK AO2 LTG DSNT W-NE OCNL LTGICCCCG E-SE AND DSNT NE TS E-SE MOV E CB DSNT NE P0015 T02330222
KHSV 220304Z 19011KT 3SM R18R/6000VP6000FT +TSRA BR BKN027CB BKN055 OVC080 24/23 A2983 RMK AO2 LTG DSNT N AND SE AND S FRQ LTGICCCCG OHD-S AND DSNT N TS OHD-S MOV E CB DSNT N P0005 T02440233
KHSV 220253Z 23003KT 5SM TSRA BR SCT030CB BKN055 OVC070 25/23 A2984 RMK AO2 LTG DSNT ALQDS RAB31 TSB25 PRESRR SLP097 FRQ LTGICCCCG S-SW AND DSNT N TS S-SW MOV E CB DSNT N P0002 60002 T02500233 53013
KHSV 220225Z 17007KT 10SM TS FEW030 BKN200 26/23 A2981 RMK AO2 LTG DSNT SW-N TSB25 FRQ LTGICCCCG VC SW-NW TS VC SW-NW MOV E T02560233
KHSV 220153Z 17006KT 10SM FEW030 FEW250 26/23 A2981 RMK AO2 LTG DSNT W SLP088 CB DSNT W-N T02560233
KHSV 220053Z 22008KT 10SM FEW028 FEW250 27/23 A2982 RMK AO2 SLP088 CB DSNT W-NW T02670228
KHSV 212353Z 22013KT 10SM FEW027 FEW050 28/23 A2980 RMK AO2 SLP083 T02830228 10300 20278 55003
KHSV 212253Z 23012KT 10SM SCT030 29/23 A2980 RMK AO2 SLP082 T02890233
KHSV 212153Z 23013KT 10SM SCT039 29/23 A2980 RMK AO2 SLP083 T02890228
KHSV 212053Z 24011KT 10SM SCT030 29/23 A2981 RMK AO2 SLP086 T02940233 58015
KHSV 211953Z 22016KT 10SM FEW029 SCT042 BKN049 29/23 A2983 RMK AO2 SLP091 T02890233
KHSV 211853Z 22014KT 10SM SCT031 BKN040 BKN048 28/23 A2984 RMK AO2 SLP097 T02780228
KHSV 211753Z 26008G15KT 10SM FEW022 FEW031 BKN070 28/23 A2986 RMK AO2 SLP101 60035 T02780228 10283 20233 58014
KHSV 211739Z 22008KT 10SM FEW022 SCT032 BKN043 28/23 A2986 RMK AO2 T02780233
KHSV 211727Z 23012KT 10SM SCT022 BKN027 BKN038 28/23 A2987 RMK AO2 T02780233
KHSV 211653Z 24010KT 10SM FEW012 SCT018 BKN039 27/23 A2988 RMK AO2 SLP109 T02720233
KHSV 211642Z 23009KT 10SM FEW012 SCT018 BKN039 27/24 A2988 RMK AO2 T02720239
KHSV 211632Z 21010KT 10SM FEW012 BKN018 BKN037 27/24 A2989 RMK AO2 T02670239
KHSV 211553Z 23007KT 10SM BKN011 OVC016 25/24 A2990 RMK AO2 CIG 008V014 SLP116 T02500239
KHSV 211548Z 20004KT 10SM BKN011 BKN016 OVC021 25/23 A2990 RMK AO2
KHSV 211509Z 22006KT 10SM BKN007 BKN050 OVC075 24/24 A2990 RMK AO2 T02440239
KHSV 211453Z 19005KT 7SM SCT005 BKN070 OVC095 24/23 A2989 RMK AO2 RAE43 SLP114 CB DSNT SE P0018 60035 T02390233 58005
KHSV 211433Z 18007KT 7SM -RA FEW006 FEW045 OVC075 24/23 A2990 RMK AO2 LTG DSNT SE CB DSNT SE P0018 T02390233
KHSV 211353Z 22003KT 2SM +RA BR BKN006 BKN046 OVC070 24/23 A2992 RMK AO2 LTG DSNT S RAB11 SLP124 CB DSNT S P0017 T02390233
KHSV 211349Z 19004KT 1 3/4SM R18R/6000VP6000FT RA BR BKN006 BKN046 OVC070 23/23 A2992 RMK AO2 SFC VIS 2 LTG DSNT S RAB11 CB DSNT S P0016
KHSV 211325Z 19003KT 2 1/2SM R18R/5000VP6000FT +RA BR SCT006 BKN039 OVC060 24/23 A2992 RMK AO2 LTG DSNT S AND SW RAB11 CB DSNT S-SW P0004 T02390233
KHSV 211253Z VRB04KT 10SM BKN005 BKN010 OVC060 24/23 A2992 RMK AO2 LTG DSNT SW RAB31E43 SLP123 CB DSNT SW P0000 T02390233
KHSV 211236Z 16003KT 10SM -RA BKN005 BKN012 OVC060 24/23 A2992 RMK AO2 RAB31 P0000 T02390233
KHSV 211153Z 13004KT 10SM SCT006 OVC060 23/23 A2991 RMK AO2 RAE52 SLP119 P0005 60057 70057 T02330233 10261 20228 50004
KHSV 211137Z 15004KT 7SM -RA BKN005 BKN039 OVC055 23/23 A2991 RMK AO2 P0005 T02330233
KHSV 211122Z 00000KT 7SM -RA FEW005 BKN039 OVC070 23/23 A2991 RMK AO2 P0005 T02330233